sensor_id;sensor_type;location;lat;lon;timestamp;pressure;altitude;pressure_sealevel;temperature;humidity
40850;BME280;26571;41.610;25.380;2023-05-20T00:01:18;98471.13;;;13.55;97.06
40850;BME280;26571;41.610;25.380;2023-05-20T00:03:44;98476.69;;;13.45;97.92
40850;BME280;26571;41.610;25.380;2023-05-20T00:06:10;98466.69;;;13.40;97.34
40850;BME280;26571;41.610;25.380;2023-05-20T00:08:35;98468.41;;;13.33;98.70
40850;BME280;26571;41.610;25.380;2023-05-20T00:11:01;98459.28;;;13.36;98.85
40850;BME280;26571;41.610;25.380;2023-05-20T00:13:26;98461.66;;;13.31;98.79
40850;BME280;26571;41.610;25.380;2023-05-20T00:15:51;98463.41;;;13.24;99.31
40850;BME280;26571;41.610;25.380;2023-05-20T00:18:17;98461.28;;;13.19;100.00
40850;BME280;26571;41.610;25.380;2023-05-20T00:20:43;98460.03;;;13.30;99.81
40850;BME280;26571;41.610;25.380;2023-05-20T00:23:08;98449.66;;;13.28;99.96
40850;BME280;26571;41.610;25.380;2023-05-20T00:25:34;98451.63;;;13.26;100.00
40850;BME280;26571;41.610;25.380;2023-05-20T00:27:59;98448.81;;;13.28;100.00
40850;BME280;26571;41.610;25.380;2023-05-20T00:30:25;98442.41;;;13.22;100.00
40850;BME280;26571;41.610;25.380;2023-05-20T00:32:50;98449.19;;;13.25;100.00
40850;BME280;26571;41.610;25.380;2023-05-20T00:35:16;98448.38;;;13.24;100.00
40850;BME280;26571;41.610;25.380;2023-05-20T00:37:41;98444.34;;;13.13;100.00
40850;BME280;26571;41.610;25.380;2023-05-20T00:40:07;98430.66;;;13.10;100.00
40850;BME280;26571;41.610;25.380;2023-05-20T00:42:33;98446.25;;;13.19;99.80
40850;BME280;26571;41.610;25.380;2023-05-20T00:44:58;98446.69;;;13.08;100.00
40850;BME280;26571;41.610;25.380;2023-05-20T00:47:29;98444.22;;;13.07;100.00
40850;BME280;26571;41.610;25.380;2023-05-20T00:49:56;98412.22;;;12.87;99.82
40850;BME280;26571;41.610;25.380;2023-05-20T00:52:22;98436.84;;;13.02;99.66
40850;BME280;26571;41.610;25.380;2023-05-20T00:54:48;98432.81;;;12.91;100.00
40850;BME280;26571;41.610;25.380;2023-05-20T00:57:15;98431.28;;;12.97;98.70
40850;BME280;26571;41.610;25.380;2023-05-20T00:59:41;98427.53;;;12.91;98.43
40850;BME280;26571;41.610;25.380;2023-05-20T01:02:07;98400.00;;;12.71;97.53
40850;BME280;26571;41.610;25.380;2023-05-20T01:04:32;98435.91;;;12.80;98.08
40850;BME280;26571;41.610;25.380;2023-05-20T01:06:59;98443.22;;;12.78;97.98
40850;BME280;26571;41.610;25.380;2023-05-20T01:09:26;98440.28;;;12.73;98.74
40850;BME280;26571;41.610;25.380;2023-05-20T01:14:36;98441.50;;;12.62;100.00
40850;BME280;26571;41.610;25.380;2023-05-20T01:17:03;98432.09;;;12.68;100.00
40850;BME280;26571;41.610;25.380;2023-05-20T01:19:43;98430.06;;;12.70;100.00
40850;BME280;26571;41.610;25.380;2023-05-20T01:22:10;98430.06;;;12.70;100.00
40850;BME280;26571;41.610;25.380;2023-05-20T01:24:45;98426.22;;;12.73;100.00
40850;BME280;26571;41.610;25.380;2023-05-20T01:27:17;98426.41;;;12.71;100.00
40850;BME280;26571;41.610;25.380;2023-05-20T01:29:44;98437.38;;;12.68;100.00
40850;BME280;26571;41.610;25.380;2023-05-20T01:32:27;98402.13;;;12.38;100.00
40850;BME280;26571;41.610;25.380;2023-05-20T01:34:55;98429.31;;;12.61;100.00
40850;BME280;26571;41.610;25.380;2023-05-20T01:37:22;98428.16;;;12.64;100.00
40850;BME280;26571;41.610;25.380;2023-05-20T01:39:49;98400.44;;;12.22;100.00
40850;BME280;26571;41.610;25.380;2023-05-20T01:42:16;98430.75;;;12.49;100.00
40850;BME280;26571;41.610;25.380;2023-05-20T01:44:42;98424.38;;;12.44;100.00
40850;BME280;26571;41.610;25.380;2023-05-20T01:47:07;98432.97;;;12.37;100.00
40850;BME280;26571;41.610;25.380;2023-05-20T01:49:33;98406.16;;;12.11;100.00
40850;BME280;26571;41.610;25.380;2023-05-20T01:51:58;98430.59;;;12.28;100.00
40850;BME280;26571;41.610;25.380;2023-05-20T01:54:24;98434.22;;;12.27;100.00
40850;BME280;26571;41.610;25.380;2023-05-20T01:56:50;98433.41;;;12.26;100.00
40850;BME280;26571;41.610;25.380;2023-05-20T01:59:15;98435.88;;;12.28;100.00
40850;BME280;26571;41.610;25.380;2023-05-20T02:01:41;98399.66;;;11.99;100.00
40850;BME280;26571;41.610;25.380;2023-05-20T02:04:06;98430.19;;;12.16;100.00
40850;BME280;26571;41.610;25.380;2023-05-20T02:06:32;98427.56;;;12.16;100.00
40850;BME280;26571;41.610;25.380;2023-05-20T02:08:57;98430.47;;;12.21;100.00
40850;BME280;26571;41.610;25.380;2023-05-20T02:11:23;98425.91;;;12.15;100.00
40850;BME280;26571;41.610;25.380;2023-05-20T02:13:49;98414.34;;;11.93;100.00
40850;BME280;26571;41.610;25.380;2023-05-20T02:16:15;98429.66;;;11.98;100.00
40850;BME280;26571;41.610;25.380;2023-05-20T02:18:40;98433.66;;;11.94;100.00
40850;BME280;26571;41.610;25.380;2023-05-20T02:21:07;98423.78;;;11.87;100.00
40850;BME280;26571;41.610;25.380;2023-05-20T02:23:32;98424.78;;;11.86;100.00
40850;BME280;26571;41.610;25.380;2023-05-20T02:25:58;98389.63;;;11.63;100.00
40850;BME280;26571;41.610;25.380;2023-05-20T02:28:23;98424.47;;;11.81;100.00
40850;BME280;26571;41.610;25.380;2023-05-20T02:30:49;98421.66;;;11.83;100.00
40850;BME280;26571;41.610;25.380;2023-05-20T02:33:18;98418.25;;;11.74;100.00
40850;BME280;26571;41.610;25.380;2023-05-20T02:35:43;98425.72;;;11.62;100.00
40850;BME280;26571;41.610;25.380;2023-05-20T02:38:11;98442.00;;;11.66;100.00
40850;BME280;26571;41.610;25.380;2023-05-20T02:40:37;98433.81;;;11.61;100.00
40850;BME280;26571;41.610;25.380;2023-05-20T02:43:03;98441.41;;;11.56;100.00
40850;BME280;26571;41.610;25.380;2023-05-20T02:45:28;98406.75;;;11.28;100.00
40850;BME280;26571;41.610;25.380;2023-05-20T02:47:54;98443.75;;;11.51;100.00
40850;BME280;26571;41.610;25.380;2023-05-20T02:50:19;98437.84;;;11.41;100.00
40850;BME280;26571;41.610;25.380;2023-05-20T02:52:45;98443.81;;;11.34;100.00
40850;BME280;26571;41.610;25.380;2023-05-20T02:55:11;98446.16;;;11.29;100.00
40850;BME280;26571;41.610;25.380;2023-05-20T02:57:37;98444.47;;;11.36;100.00
40850;BME280;26571;41.610;25.380;2023-05-20T03:00:04;98448.41;;;11.41;100.00
40850;BME280;26571;41.610;25.380;2023-05-20T03:02:35;98440.50;;;11.32;100.00
40850;BME280;26571;41.610;25.380;2023-05-20T03:05:00;98453.31;;;11.44;100.00
40850;BME280;26571;41.610;25.380;2023-05-20T03:07:26;98395.88;;;10.92;100.00
40850;BME280;26571;41.610;25.380;2023-05-20T03:09:52;98454.09;;;11.52;100.00
40850;BME280;26571;41.610;25.380;2023-05-20T03:12:18;98456.59;;;11.54;100.00
40850;BME280;26571;41.610;25.380;2023-05-20T03:14:43;98456.41;;;11.55;100.00
40850;BME280;26571;41.610;25.380;2023-05-20T03:17:09;98457.72;;;11.59;100.00
40850;BME280;26571;41.610;25.380;2023-05-20T03:19:35;98458.31;;;11.70;100.00
40850;BME280;26571;41.610;25.380;2023-05-20T03:22:01;98462.94;;;11.68;100.00
40850;BME280;26571;41.610;25.380;2023-05-20T03:24:27;98471.44;;;11.86;100.00
40850;BME280;26571;41.610;25.380;2023-05-20T03:26:53;98473.25;;;11.85;100.00
40850;BME280;26571;41.610;25.380;2023-05-20T03:29:18;98456.91;;;11.90;100.00
40850;BME280;26571;41.610;25.380;2023-05-20T03:31:44;98431.88;;;11.86;100.00
40850;BME280;26571;41.610;25.380;2023-05-20T03:34:09;98471.50;;;12.09;100.00
40850;BME280;26571;41.610;25.380;2023-05-20T03:36:35;98466.31;;;12.15;100.00
40850;BME280;26571;41.610;25.380;2023-05-20T03:39:00;98454.91;;;12.38;100.00
40850;BME280;26571;41.610;25.380;2023-05-20T03:41:26;98462.72;;;13.07;100.00
40850;BME280;26571;41.610;25.380;2023-05-20T03:43:52;98468.75;;;13.96;98.24
40850;BME280;26571;41.610;25.380;2023-05-20T03:46:17;98472.69;;;14.86;87.73
40850;BME280;26571;41.610;25.380;2023-05-20T03:48:43;98468.53;;;15.81;77.97
40850;BME280;26571;41.610;25.380;2023-05-20T03:51:08;98471.97;;;16.55;71.75
40850;BME280;26571;41.610;25.380;2023-05-20T03:53:33;98458.03;;;17.33;67.71
40850;BME280;26571;41.610;25.380;2023-05-20T03:55:59;98473.66;;;17.81;63.53
40850;BME280;26571;41.610;25.380;2023-05-20T03:58:25;98459.28;;;18.27;62.32
40850;BME280;26571;41.610;25.380;2023-05-20T04:00:53;98465.34;;;18.34;60.61
40850;BME280;26571;41.610;25.380;2023-05-20T04:03:18;98479.34;;;17.91;62.44
40850;BME280;26571;41.610;25.380;2023-05-20T04:05:43;98481.69;;;17.54;63.88
40850;BME280;26571;41.610;25.380;2023-05-20T04:08:09;98474.63;;;17.15;65.13
40850;BME280;26571;41.610;25.380;2023-05-20T04:10:39;98479.28;;;17.46;67.88
40850;BME280;26571;41.610;25.380;2023-05-20T04:13:05;98478.19;;;18.50;63.49
40850;BME280;26571;41.610;25.380;2023-05-20T04:15:34;98482.66;;;19.68;59.37
40850;BME280;26571;41.610;25.380;2023-05-20T04:18:00;98474.94;;;20.80;55.00
40850;BME280;26571;41.610;25.380;2023-05-20T04:20:25;98477.00;;;21.72;51.43
40850;BME280;26571;41.610;25.380;2023-05-20T04:22:51;98471.88;;;22.56;49.19
40850;BME280;26571;41.610;25.380;2023-05-20T04:25:18;98473.03;;;23.28;46.74
40850;BME280;26571;41.610;25.380;2023-05-20T04:27:43;98446.25;;;23.77;44.09
40850;BME280;26571;41.610;25.380;2023-05-20T04:30:09;98484.59;;;24.38;43.86
40850;BME280;26571;41.610;25.380;2023-05-20T04:32:35;98488.41;;;24.74;43.10
40850;BME280;26571;41.610;25.380;2023-05-20T04:35:00;98487.81;;;24.99;42.47
40850;BME280;26571;41.610;25.380;2023-05-20T04:37:27;98503.53;;;24.48;42.32
40850;BME280;26571;41.610;25.380;2023-05-20T04:39:53;98485.72;;;23.32;44.14
40850;BME280;26571;41.610;25.380;2023-05-20T04:42:19;98488.56;;;22.13;47.00
40850;BME280;26571;41.610;25.380;2023-05-20T04:44:46;98485.22;;;21.30;49.96
40850;BME280;26571;41.610;25.380;2023-05-20T04:47:12;98485.59;;;21.34;50.37
40850;BME280;26571;41.610;25.380;2023-05-20T04:49:37;98480.91;;;21.29;50.90
40850;BME280;26571;41.610;25.380;2023-05-20T04:52:03;98470.81;;;22.12;50.18
40850;BME280;26571;41.610;25.380;2023-05-20T04:54:29;98479.72;;;22.91;48.65
40850;BME280;26571;41.610;25.380;2023-05-20T04:56:57;98472.66;;;23.41;46.62
40850;BME280;26571;41.610;25.380;2023-05-20T04:59:22;98466.38;;;22.80;46.63
40850;BME280;26571;41.610;25.380;2023-05-20T05:01:48;98485.16;;;22.80;48.58
40850;BME280;26571;41.610;25.380;2023-05-20T05:04:13;98462.75;;;23.25;48.17
40850;BME280;26571;41.610;25.380;2023-05-20T05:06:38;98474.78;;;23.78;46.45
40850;BME280;26571;41.610;25.380;2023-05-20T05:09:04;98456.25;;;24.03;46.27
40850;BME280;26571;41.610;25.380;2023-05-20T05:11:29;98480.44;;;24.03;47.38
40850;BME280;26571;41.610;25.380;2023-05-20T05:13:55;98467.19;;;23.75;47.22
40850;BME280;26571;41.610;25.380;2023-05-20T05:16:20;98471.44;;;23.70;48.02
40850;BME280;26571;41.610;25.380;2023-05-20T05:18:46;98487.09;;;23.73;47.43
40850;BME280;26571;41.610;25.380;2023-05-20T05:21:11;98482.53;;;23.74;46.12
40850;BME280;26571;41.610;25.380;2023-05-20T05:23:37;98483.13;;;23.81;48.41
40850;BME280;26571;41.610;25.380;2023-05-20T05:26:02;98465.03;;;23.33;48.99
40850;BME280;26571;41.610;25.380;2023-05-20T05:28:28;98478.06;;;23.07;51.03
40850;BME280;26571;41.610;25.380;2023-05-20T05:30:54;98480.63;;;23.14;50.99
40850;BME280;26571;41.610;25.380;2023-05-20T05:33:20;98479.81;;;23.13;50.85
40850;BME280;26571;41.610;25.380;2023-05-20T05:35:46;98457.91;;;22.88;51.25
40850;BME280;26571;41.610;25.380;2023-05-20T05:38:11;98477.66;;;23.15;51.93
40850;BME280;26571;41.610;25.380;2023-05-20T05:40:37;98474.72;;;23.56;51.85
40850;BME280;26571;41.610;25.380;2023-05-20T05:43:03;98483.25;;;23.91;52.59
40850;BME280;26571;41.610;25.380;2023-05-20T05:45:28;98486.56;;;23.77;50.50
40850;BME280;26571;41.610;25.380;2023-05-20T05:47:54;98481.84;;;23.45;51.07
40850;BME280;26571;41.610;25.380;2023-05-20T05:50:19;98473.78;;;23.45;51.46
40850;BME280;26571;41.610;25.380;2023-05-20T05:52:45;98483.47;;;23.46;54.49
40850;BME280;26571;41.610;25.380;2023-05-20T05:55:11;98453.97;;;23.29;56.59
40850;BME280;26571;41.610;25.380;2023-05-20T05:57:36;98446.84;;;23.40;53.91
40850;BME280;26571;41.610;25.380;2023-05-20T06:00:02;98489.25;;;23.77;53.37
40850;BME280;26571;41.610;25.380;2023-05-20T06:02:28;98486.63;;;24.04;52.02
40850;BME280;26571;41.610;25.380;2023-05-20T06:04:54;98480.75;;;24.34;52.22
40850;BME280;26571;41.610;25.380;2023-05-20T06:07:19;98454.47;;;24.41;51.17
40850;BME280;26571;41.610;25.380;2023-05-20T06:09:45;98476.94;;;24.89;50.67
40850;BME280;26571;41.610;25.380;2023-05-20T06:12:11;98462.75;;;24.66;48.89
40850;BME280;26571;41.610;25.380;2023-05-20T06:14:36;98450.50;;;24.48;50.20
40850;BME280;26571;41.610;25.380;2023-05-20T06:17:02;98473.19;;;24.90;48.56
40850;BME280;26571;41.610;25.380;2023-05-20T06:19:28;98473.88;;;25.07;48.06
40850;BME280;26571;41.610;25.380;2023-05-20T06:21:54;98479.06;;;25.19;45.75
40850;BME280;26571;41.610;25.380;2023-05-20T06:24:20;98469.44;;;25.28;46.69
40850;BME280;26571;41.610;25.380;2023-05-20T06:26:45;98465.72;;;25.39;46.28
40850;BME280;26571;41.610;25.380;2023-05-20T06:29:11;98466.59;;;25.55;46.90
40850;BME280;26571;41.610;25.380;2023-05-20T06:31:36;98463.41;;;25.63;44.72
40850;BME280;26571;41.610;25.380;2023-05-20T06:34:01;98428.03;;;25.02;43.95
40850;BME280;26571;41.610;25.380;2023-05-20T06:36:27;98455.84;;;25.08;45.25
40850;BME280;26571;41.610;25.380;2023-05-20T06:38:53;98462.56;;;25.10;44.10
40850;BME280;26571;41.610;25.380;2023-05-20T06:41:18;98452.22;;;24.92;44.13
40850;BME280;26571;41.610;25.380;2023-05-20T06:43:44;98449.53;;;25.39;43.27
40850;BME280;26571;41.610;25.380;2023-05-20T06:46:09;98453.16;;;25.65;42.27
40850;BME280;26571;41.610;25.380;2023-05-20T06:48:35;98454.28;;;25.74;40.56
40850;BME280;26571;41.610;25.380;2023-05-20T06:51:00;98451.66;;;25.95;40.77
40850;BME280;26571;41.610;25.380;2023-05-20T06:53:25;98457.38;;;26.09;41.08
40850;BME280;26571;41.610;25.380;2023-05-20T06:55:53;98447.91;;;25.96;40.11
40850;BME280;26571;41.610;25.380;2023-05-20T06:58:20;98443.03;;;25.83;40.63
40850;BME280;26571;41.610;25.380;2023-05-20T07:00:46;98450.00;;;25.78;39.66
40850;BME280;26571;41.610;25.380;2023-05-20T07:03:11;98443.81;;;25.83;40.16
40850;BME280;26571;41.610;25.380;2023-05-20T07:05:36;98440.03;;;25.79;40.61
40850;BME280;26571;41.610;25.380;2023-05-20T07:08:02;98440.88;;;25.90;40.41
40850;BME280;26571;41.610;25.380;2023-05-20T07:10:28;98445.22;;;25.91;38.85
40850;BME280;26571;41.610;25.380;2023-05-20T07:12:53;98444.41;;;26.00;38.99
40850;BME280;26571;41.610;25.380;2023-05-20T07:15:19;98435.50;;;26.10;38.47
40850;BME280;26571;41.610;25.380;2023-05-20T07:17:44;98400.16;;;25.91;39.97
40850;BME280;26571;41.610;25.380;2023-05-20T07:20:10;98441.22;;;26.34;38.79
40850;BME280;26571;41.610;25.380;2023-05-20T07:22:36;98438.81;;;26.38;38.28
40850;BME280;26571;41.610;25.380;2023-05-20T07:25:02;98436.91;;;26.23;37.56
40850;BME280;26571;41.610;25.380;2023-05-20T07:27:27;98433.38;;;26.12;38.27
40850;BME280;26571;41.610;25.380;2023-05-20T07:29:53;98445.78;;;26.13;37.88
40850;BME280;26571;41.610;25.380;2023-05-20T07:32:18;98452.44;;;25.85;38.47
40850;BME280;26571;41.610;25.380;2023-05-20T07:34:43;98433.84;;;25.78;38.55
40850;BME280;26571;41.610;25.380;2023-05-20T07:37:09;98442.75;;;25.26;38.47
40850;BME280;26571;41.610;25.380;2023-05-20T07:39:37;98434.91;;;25.25;39.63
40850;BME280;26571;41.610;25.380;2023-05-20T07:42:02;98447.88;;;25.28;40.04
40850;BME280;26571;41.610;25.380;2023-05-20T07:44:28;98452.56;;;25.53;39.54
40850;BME280;26571;41.610;25.380;2023-05-20T07:46:54;98457.59;;;25.82;40.08
40850;BME280;26571;41.610;25.380;2023-05-20T07:49:19;98436.41;;;25.53;40.41
40850;BME280;26571;41.610;25.380;2023-05-20T07:51:45;98451.94;;;25.93;40.94
40850;BME280;26571;41.610;25.380;2023-05-20T07:54:11;98455.50;;;26.14;39.80
40850;BME280;26571;41.610;25.380;2023-05-20T07:56:36;98451.22;;;26.34;38.93
40850;BME280;26571;41.610;25.380;2023-05-20T07:59:02;98455.50;;;26.24;38.95
40850;BME280;26571;41.610;25.380;2023-05-20T08:01:28;98452.34;;;26.43;38.28
40850;BME280;26571;41.610;25.380;2023-05-20T08:03:53;98435.56;;;26.36;38.05
40850;BME280;26571;41.610;25.380;2023-05-20T08:06:19;98428.00;;;26.27;38.01
40850;BME280;26571;41.610;25.380;2023-05-20T08:08:45;98440.91;;;26.10;39.30
40850;BME280;26571;41.610;25.380;2023-05-20T08:11:11;98431.75;;;26.01;38.65
40850;BME280;26571;41.610;25.380;2023-05-20T08:13:37;98449.56;;;26.07;38.60
40850;BME280;26571;41.610;25.380;2023-05-20T08:16:03;98421.47;;;25.98;39.41
40850;BME280;26571;41.610;25.380;2023-05-20T08:18:30;98450.09;;;26.14;39.29
40850;BME280;26571;41.610;25.380;2023-05-20T08:20:56;98452.22;;;25.92;40.18
40850;BME280;26571;41.610;25.380;2023-05-20T08:23:23;98451.97;;;25.98;40.00
40850;BME280;26571;41.610;25.380;2023-05-20T08:25:48;98450.81;;;25.79;39.86
40850;BME280;26571;41.610;25.380;2023-05-20T08:28:14;98447.84;;;25.81;39.85
40850;BME280;26571;41.610;25.380;2023-05-20T08:30:39;98450.34;;;25.40;40.08
40850;BME280;26571;41.610;25.380;2023-05-20T08:33:06;98448.16;;;25.32;40.47
40850;BME280;26571;41.610;25.380;2023-05-20T08:35:32;98453.09;;;25.02;40.97
40850;BME280;26571;41.610;25.380;2023-05-20T08:37:57;98452.00;;;24.66;41.39
40850;BME280;26571;41.610;25.380;2023-05-20T08:40:23;98443.50;;;24.20;42.84
40850;BME280;26571;41.610;25.380;2023-05-20T08:42:50;98455.00;;;23.67;43.66
40850;BME280;26571;41.610;25.380;2023-05-20T08:45:18;98450.94;;;23.26;44.56
40850;BME280;26571;41.610;25.380;2023-05-20T08:47:44;98452.28;;;23.06;45.50
40850;BME280;26571;41.610;25.380;2023-05-20T08:50:11;98444.25;;;23.06;46.54
40850;BME280;26571;41.610;25.380;2023-05-20T08:52:39;98453.09;;;23.07;47.19
40850;BME280;26571;41.610;25.380;2023-05-20T08:55:08;98459.06;;;22.92;47.65
40850;BME280;26571;41.610;25.380;2023-05-20T08:57:34;98458.16;;;22.69;47.44
40850;BME280;26571;41.610;25.380;2023-05-20T09:00:01;98466.94;;;22.48;51.22
40850;BME280;26571;41.610;25.380;2023-05-20T09:02:36;98465.28;;;22.30;53.65
40850;BME280;26571;41.610;25.380;2023-05-20T09:05:03;98447.41;;;22.36;54.02
40850;BME280;26571;41.610;25.380;2023-05-20T09:07:29;98423.94;;;22.43;53.78
40850;BME280;26571;41.610;25.380;2023-05-20T09:09:55;98454.56;;;22.81;52.40
40850;BME280;26571;41.610;25.380;2023-05-20T09:12:21;98439.06;;;22.83;51.67
40850;BME280;26571;41.610;25.380;2023-05-20T09:14:46;98453.34;;;23.05;49.79
40850;BME280;26571;41.610;25.380;2023-05-20T09:17:12;98455.63;;;23.13;50.96
40850;BME280;26571;41.610;25.380;2023-05-20T09:19:37;98451.88;;;22.81;49.40
40850;BME280;26571;41.610;25.380;2023-05-20T09:22:03;98439.13;;;22.54;48.96
40850;BME280;26571;41.610;25.380;2023-05-20T09:24:29;98437.34;;;22.60;49.07
40850;BME280;26571;41.610;25.380;2023-05-20T09:26:55;98427.50;;;22.65;49.32
40850;BME280;26571;41.610;25.380;2023-05-20T09:29:22;98437.91;;;22.45;48.66
40850;BME280;26571;41.610;25.380;2023-05-20T09:31:48;98438.88;;;22.39;49.80
40850;BME280;26571;41.610;25.380;2023-05-20T09:34:14;98452.16;;;22.17;50.08
40850;BME280;26571;41.610;25.380;2023-05-20T09:36:42;98440.47;;;22.23;49.26
40850;BME280;26571;41.610;25.380;2023-05-20T09:39:12;98443.16;;;22.23;48.84
40850;BME280;26571;41.610;25.380;2023-05-20T09:44:10;98440.09;;;21.62;50.82
40850;BME280;26571;41.610;25.380;2023-05-20T09:46:37;98438.50;;;21.38;52.23
40850;BME280;26571;41.610;25.380;2023-05-20T09:49:03;98413.16;;;21.05;53.64
40850;BME280;26571;41.610;25.380;2023-05-20T09:51:32;98448.66;;;21.24;53.57
40850;BME280;26571;41.610;25.380;2023-05-20T09:53:59;98443.78;;;21.09;53.51
40850;BME280;26571;41.610;25.380;2023-05-20T09:56:28;98438.09;;;20.94;55.27
40850;BME280;26571;41.610;25.380;2023-05-20T09:58:54;98447.03;;;20.64;55.50
40850;BME280;26571;41.610;25.380;2023-05-20T10:01:23;98426.75;;;20.57;55.59
40850;BME280;26571;41.610;25.380;2023-05-20T10:03:50;98440.81;;;20.52;55.57
40850;BME280;26571;41.610;25.380;2023-05-20T10:06:28;98444.66;;;20.56;56.34
40850;BME280;26571;41.610;25.380;2023-05-20T10:12:09;98434.13;;;20.85;55.83
40850;BME280;26571;41.610;25.380;2023-05-20T10:17:19;98439.84;;;20.88;54.19
40850;BME280;26571;41.610;25.380;2023-05-20T10:19:45;98446.44;;;20.86;55.36
40850;BME280;26571;41.610;25.380;2023-05-20T10:22:11;98447.13;;;20.93;54.79
40850;BME280;26571;41.610;25.380;2023-05-20T10:24:39;98435.97;;;20.96;54.60
40850;BME280;26571;41.610;25.380;2023-05-20T10:27:10;98440.63;;;21.12;54.57
40850;BME280;26571;41.610;25.380;2023-05-20T10:29:53;98428.03;;;21.25;53.30
40850;BME280;26571;41.610;25.380;2023-05-20T10:32:28;98425.22;;;21.43;52.05
40850;BME280;26571;41.610;25.380;2023-05-20T10:35:03;98415.56;;;21.54;49.75
40850;BME280;26571;41.610;25.380;2023-05-20T10:37:32;98413.09;;;21.52;49.18
40850;BME280;26571;41.610;25.380;2023-05-20T10:40:04;98422.19;;;21.51;50.10
40850;BME280;26571;41.610;25.380;2023-05-20T10:42:29;98425.69;;;21.52;50.80
40850;BME280;26571;41.610;25.380;2023-05-20T10:44:55;98419.41;;;21.46;50.75
40850;BME280;26571;41.610;25.380;2023-05-20T10:47:20;98308.50;;;20.67;51.41
40850;BME280;26571;41.610;25.380;2023-05-20T10:49:46;98419.31;;;21.41;51.49
40850;BME280;26571;41.610;25.380;2023-05-20T10:52:20;98413.38;;;21.39;51.79
40850;BME280;26571;41.610;25.380;2023-05-20T10:57:17;98397.16;;;21.46;51.07
40850;BME280;26571;41.610;25.380;2023-05-20T10:59:43;98407.94;;;21.62;51.64
40850;BME280;26571;41.610;25.380;2023-05-20T11:02:09;98411.53;;;21.68;50.49
40850;BME280;26571;41.610;25.380;2023-05-20T11:04:37;98402.69;;;21.67;50.38
40850;BME280;26571;41.610;25.380;2023-05-20T11:07:02;98403.97;;;21.65;50.07
40850;BME280;26571;41.610;25.380;2023-05-20T11:09:28;98408.38;;;21.71;49.60
40850;BME280;26571;41.610;25.380;2023-05-20T11:11:55;98389.97;;;21.75;50.47
40850;BME280;26571;41.610;25.380;2023-05-20T11:14:20;98396.66;;;21.89;51.11
40850;BME280;26571;41.610;25.380;2023-05-20T11:16:50;98368.81;;;21.90;49.41
40850;BME280;26571;41.610;25.380;2023-05-20T11:19:16;98377.03;;;22.29;49.54
40850;BME280;26571;41.610;25.380;2023-05-20T11:21:46;98390.41;;;22.62;47.54
40850;BME280;26571;41.610;25.380;2023-05-20T11:24:12;98391.94;;;22.75;45.53
40850;BME280;26571;41.610;25.380;2023-05-20T11:26:38;98389.09;;;22.99;46.54
40850;BME280;26571;41.610;25.380;2023-05-20T11:29:04;98366.88;;;23.03;45.99
40850;BME280;26571;41.610;25.380;2023-05-20T11:31:30;98385.53;;;23.37;46.10
40850;BME280;26571;41.610;25.380;2023-05-20T11:33:58;98385.81;;;23.57;45.31
40850;BME280;26571;41.610;25.380;2023-05-20T11:36:26;98386.88;;;23.78;47.25
40850;BME280;26571;41.610;25.380;2023-05-20T11:38:53;98382.00;;;24.02;44.51
40850;BME280;26571;41.610;25.380;2023-05-20T11:41:25;98274.16;;;23.44;44.48
40850;BME280;26571;41.610;25.380;2023-05-20T11:43:58;98393.75;;;23.96;44.02
40850;BME280;26571;41.610;25.380;2023-05-20T11:46:24;98394.13;;;23.78;43.72
40850;BME280;26571;41.610;25.380;2023-05-20T11:48:53;98384.84;;;23.63;44.60
40850;BME280;26571;41.610;25.380;2023-05-20T11:51:28;98392.50;;;23.55;46.07
40850;BME280;26571;41.610;25.380;2023-05-20T11:54:01;98361.81;;;23.29;46.72
40850;BME280;26571;41.610;25.380;2023-05-20T11:56:28;98388.16;;;23.32;45.98
40850;BME280;26571;41.610;25.380;2023-05-20T11:58:56;98385.38;;;23.43;44.90
40850;BME280;26571;41.610;25.380;2023-05-20T12:01:22;98381.75;;;23.55;44.56
40850;BME280;26571;41.610;25.380;2023-05-20T12:03:48;98374.91;;;23.47;44.65
40850;BME280;26571;41.610;25.380;2023-05-20T12:06:13;98382.19;;;23.25;44.68
40850;BME280;26571;41.610;25.380;2023-05-20T12:08:39;98386.88;;;23.34;45.07
40850;BME280;26571;41.610;25.380;2023-05-20T12:11:04;98381.69;;;23.28;45.89
40850;BME280;26571;41.610;25.380;2023-05-20T12:13:30;98384.31;;;23.23;44.15
40850;BME280;26571;41.610;25.380;2023-05-20T12:15:55;98384.19;;;23.12;44.85
40850;BME280;26571;41.610;25.380;2023-05-20T12:18:21;98386.78;;;23.07;45.70
40850;BME280;26571;41.610;25.380;2023-05-20T12:20:46;98383.16;;;22.96;46.06
40850;BME280;26571;41.610;25.380;2023-05-20T12:23:12;98364.94;;;22.82;46.12
40850;BME280;26571;41.610;25.380;2023-05-20T12:25:37;98326.28;;;22.27;45.38
40850;BME280;26571;41.610;25.380;2023-05-20T12:28:03;98376.44;;;22.60;45.93
40850;BME280;26571;41.610;25.380;2023-05-20T12:30:28;98379.03;;;22.55;46.21
40850;BME280;26571;41.610;25.380;2023-05-20T12:32:53;98374.16;;;22.52;46.69
40850;BME280;26571;41.610;25.380;2023-05-20T12:35:35;98376.75;;;22.47;46.92
40850;BME280;26571;41.610;25.380;2023-05-20T12:38:01;98379.22;;;22.49;47.62
40850;BME280;26571;41.610;25.380;2023-05-20T12:40:26;98368.16;;;22.45;47.81
40850;BME280;26571;41.610;25.380;2023-05-20T12:42:53;98367.34;;;22.44;47.63
40850;BME280;26571;41.610;25.380;2023-05-20T12:45:18;98356.94;;;22.31;48.35
40850;BME280;26571;41.610;25.380;2023-05-20T12:47:43;98316.25;;;22.06;47.58
40850;BME280;26571;41.610;25.380;2023-05-20T12:50:09;98351.16;;;22.23;48.28
40850;BME280;26571;41.610;25.380;2023-05-20T12:52:35;98333.94;;;22.18;48.77
40850;BME280;26571;41.610;25.380;2023-05-20T12:55:00;98334.09;;;22.29;49.13
40850;BME280;26571;41.610;25.380;2023-05-20T12:57:26;98327.75;;;22.35;48.92